sensor_id;sensor_type;location;lat;lon;timestamp;pressure;altitude;pressure_sealevel;temperature;humidity
63405;BME280;49541;57.840;12.306;2022-08-14T00:01:16;100969.81;;;19.60;59.95
63405;BME280;49541;57.840;12.306;2022-08-14T00:06:16;100978.78;;;19.76;62.37
63405;BME280;49541;57.840;12.306;2022-08-14T00:11:16;100973.25;;;20.07;63.32
63405;BME280;49541;57.840;12.306;2022-08-14T00:16:16;100973.41;;;19.76;63.57
63405;BME280;49541;57.840;12.306;2022-08-14T00:21:16;100974.03;;;19.40;65.58
63405;BME280;49541;57.840;12.306;2022-08-14T00:26:17;100970.66;;;19.38;65.81
63405;BME280;49541;57.840;12.306;2022-08-14T00:31:17;100968.81;;;19.76;66.21
63405;BME280;49541;57.840;12.306;2022-08-14T00:36:18;100971.41;;;19.32;67.07
63405;BME280;49541;57.840;12.306;2022-08-14T00:41:18;100968.31;;;18.57;70.16
63405;BME280;49541;57.840;12.306;2022-08-14T00:46:18;100970.75;;;17.88;73.51
63405;BME280;49541;57.840;12.306;2022-08-14T00:51:18;100955.94;;;17.68;74.87
63405;BME280;49541;57.840;12.306;2022-08-14T00:56:20;100965.72;;;17.44;76.29
63405;BME280;49541;57.840;12.306;2022-08-14T01:01:20;100959.00;;;17.24;77.45
63405;BME280;49541;57.840;12.306;2022-08-14T01:06:21;100959.31;;;17.20;77.65
63405;BME280;49541;57.840;12.306;2022-08-14T01:11:22;100955.66;;;17.30;77.08
63405;BME280;49541;57.840;12.306;2022-08-14T01:16:23;100955.31;;;17.16;78.06
63405;BME280;49541;57.840;12.306;2022-08-14T01:21:24;100949.75;;;16.93;78.43
63405;BME280;49541;57.840;12.306;2022-08-14T01:26:30;100953.91;;;16.88;80.10
63405;BME280;49541;57.840;12.306;2022-08-14T01:31:31;100959.34;;;17.37;77.28
63405;BME280;49541;57.840;12.306;2022-08-14T01:36:31;100959.66;;;16.93;79.14
63405;BME280;49541;57.840;12.306;2022-08-14T01:41:36;100957.28;;;16.90;78.96
63405;BME280;49541;57.840;12.306;2022-08-14T01:46:37;100952.63;;;17.08;78.88
63405;BME280;49541;57.840;12.306;2022-08-14T01:51:39;100941.84;;;17.25;77.81
63405;BME280;49541;57.840;12.306;2022-08-14T01:56:39;100937.81;;;17.37;76.76
63405;BME280;49541;57.840;12.306;2022-08-14T02:01:40;100937.50;;;17.24;75.63
63405;BME280;49541;57.840;12.306;2022-08-14T02:06:42;100948.75;;;17.19;74.22
63405;BME280;49541;57.840;12.306;2022-08-14T02:11:43;100944.03;;;17.37;71.57
63405;BME280;49541;57.840;12.306;2022-08-14T02:16:45;100944.69;;;17.31;72.29
63405;BME280;49541;57.840;12.306;2022-08-14T02:21:47;100941.84;;;17.25;71.93
63405;BME280;49541;57.840;12.306;2022-08-14T02:26:49;100937.50;;;17.32;71.83
63405;BME280;49541;57.840;12.306;2022-08-14T02:31:51;100936.66;;;17.23;71.78
63405;BME280;49541;57.840;12.306;2022-08-14T02:36:52;100940.66;;;17.35;71.32
63405;BME280;49541;57.840;12.306;2022-08-14T02:41:53;100937.81;;;17.20;71.63
63405;BME280;49541;57.840;12.306;2022-08-14T02:46:53;100934.78;;;16.91;70.64
63405;BME280;49541;57.840;12.306;2022-08-14T02:51:57;100930.59;;;17.13;71.13
63405;BME280;49541;57.840;12.306;2022-08-14T02:56:57;100935.94;;;16.96;71.82
63405;BME280;49541;57.840;12.306;2022-08-14T03:01:59;100928.22;;;16.93;71.77
63405;BME280;49541;57.840;12.306;2022-08-14T03:06:59;100921.13;;;16.76;70.04
63405;BME280;49541;57.840;12.306;2022-08-14T03:11:59;100923.66;;;16.86;70.46
63405;BME280;49541;57.840;12.306;2022-08-14T03:17:01;100915.44;;;16.87;70.38
63405;BME280;49541;57.840;12.306;2022-08-14T03:22:01;100914.25;;;16.82;70.98
63405;BME280;49541;57.840;12.306;2022-08-14T03:27:02;100919.47;;;16.83;71.56
63405;BME280;49541;57.840;12.306;2022-08-14T03:32:02;100911.72;;;16.88;72.15
63405;BME280;49541;57.840;12.306;2022-08-14T03:37:03;100909.06;;;16.96;71.09
63405;BME280;49541;57.840;12.306;2022-08-14T03:42:04;100914.28;;;17.06;69.93
63405;BME280;49541;57.840;12.306;2022-08-14T03:47:04;100911.03;;;16.78;69.69
63405;BME280;49541;57.840;12.306;2022-08-14T03:52:05;100906.53;;;17.03;69.95
63405;BME280;49541;57.840;12.306;2022-08-14T03:57:06;100907.19;;;16.97;69.92
63405;BME280;49541;57.840;12.306;2022-08-14T04:02:07;100902.34;;;17.01;69.75
63405;BME280;49541;57.840;12.306;2022-08-14T04:07:07;100904.03;;;16.93;69.98
63405;BME280;49541;57.840;12.306;2022-08-14T04:12:09;100904.69;;;16.87;70.79
63405;BME280;49541;57.840;12.306;2022-08-14T04:17:09;100894.44;;;17.15;70.83
63405;BME280;49541;57.840;12.306;2022-08-14T04:22:10;100897.41;;;16.79;71.85
63405;BME280;49541;57.840;12.306;2022-08-14T04:27:11;100894.22;;;16.68;72.10
63405;BME280;49541;57.840;12.306;2022-08-14T04:32:12;100902.13;;;16.69;72.11
63405;BME280;49541;57.840;12.306;2022-08-14T04:37:14;100889.06;;;16.91;71.28
63405;BME280;49541;57.840;12.306;2022-08-14T04:42:33;100904.84;;;16.86;72.05
63405;BME280;49541;57.840;12.306;2022-08-14T04:47:52;100886.03;;;16.86;73.32
63405;BME280;49541;57.840;12.306;2022-08-14T04:53:12;100891.09;;;16.89;72.65
63405;BME280;49541;57.840;12.306;2022-08-14T04:58:13;100881.97;;;17.23;71.04
63405;BME280;49541;57.840;12.306;2022-08-14T05:03:13;100880.09;;;17.48;70.65
63405;BME280;49541;57.840;12.306;2022-08-14T05:08:13;100886.31;;;17.48;70.48
63405;BME280;49541;57.840;12.306;2022-08-14T05:13:13;100876.94;;;17.36;68.90
63405;BME280;49541;57.840;12.306;2022-08-14T05:18:19;100877.16;;;17.98;72.10
63405;BME280;49541;57.840;12.306;2022-08-14T05:23:21;100882.59;;;18.76;73.88
63405;BME280;49541;57.840;12.306;2022-08-14T05:28:23;100884.41;;;18.83;73.01
63405;BME280;49541;57.840;12.306;2022-08-14T05:33:25;100883.50;;;18.06;72.74
63405;BME280;49541;57.840;12.306;2022-08-14T05:38:28;100873.47;;;17.83;69.69
63405;BME280;49541;57.840;12.306;2022-08-14T05:43:32;100871.09;;;17.96;71.71
63405;BME280;49541;57.840;12.306;2022-08-14T05:48:33;100869.00;;;18.07;70.75
63405;BME280;49541;57.840;12.306;2022-08-14T05:53:33;100867.81;;;18.40;71.30
63405;BME280;49541;57.840;12.306;2022-08-14T05:58:33;100861.72;;;18.78;71.70
63405;BME280;49541;57.840;12.306;2022-08-14T06:03:34;100868.13;;;19.00;70.87
63405;BME280;49541;57.840;12.306;2022-08-14T06:08:34;100865.88;;;19.41;71.11
63405;BME280;49541;57.840;12.306;2022-08-14T06:13:36;100867.34;;;19.44;70.62
63405;BME280;49541;57.840;12.306;2022-08-14T06:18:36;100868.31;;;19.66;71.30
63405;BME280;49541;57.840;12.306;2022-08-14T06:23:36;100863.84;;;19.58;71.84
63405;BME280;49541;57.840;12.306;2022-08-14T06:28:36;100859.47;;;19.87;73.01
63405;BME280;49541;57.840;12.306;2022-08-14T06:33:37;100858.59;;;20.16;74.23
63405;BME280;49541;57.840;12.306;2022-08-14T06:38:37;100852.84;;;20.41;73.32
63405;BME280;49541;57.840;12.306;2022-08-14T06:43:37;100860.09;;;20.55;73.06
63405;BME280;49541;57.840;12.306;2022-08-14T06:48:37;100858.63;;;20.96;74.01
63405;BME280;49541;57.840;12.306;2022-08-14T06:53:37;100853.03;;;21.47;71.16
63405;BME280;49541;57.840;12.306;2022-08-14T06:58:38;100853.69;;;21.56;70.80
63405;BME280;49541;57.840;12.306;2022-08-14T07:03:38;100850.75;;;21.85;70.40
63405;BME280;49541;57.840;12.306;2022-08-14T07:08:57;100853.28;;;22.00;69.62
63405;BME280;49541;57.840;12.306;2022-08-14T07:13:57;100858.94;;;22.67;68.22
63405;BME280;49541;57.840;12.306;2022-08-14T07:18:57;100855.41;;;22.66;67.50
63405;BME280;49541;57.840;12.306;2022-08-14T07:23:57;100845.81;;;22.90;67.41
63405;BME280;49541;57.840;12.306;2022-08-14T07:28:58;100848.97;;;23.14;65.18
63405;BME280;49541;57.840;12.306;2022-08-14T07:33:58;100849.13;;;23.59;65.96
63405;BME280;49541;57.840;12.306;2022-08-14T07:38:58;100847.44;;;23.78;65.04
63405;BME280;49541;57.840;12.306;2022-08-14T07:43:58;100850.72;;;23.94;64.45
63405;BME280;49541;57.840;12.306;2022-08-14T07:48:59;100855.41;;;24.25;62.98
63405;BME280;49541;57.840;12.306;2022-08-14T07:53:59;100848.50;;;24.61;62.79
63405;BME280;49541;57.840;12.306;2022-08-14T07:58:59;100851.09;;;25.06;59.17
63405;BME280;49541;57.840;12.306;2022-08-14T08:04:01;100859.00;;;25.14;58.26
63405;BME280;49541;57.840;12.306;2022-08-14T08:09:03;100857.72;;;25.42;58.26
63405;BME280;49541;57.840;12.306;2022-08-14T08:14:04;100857.50;;;25.43;57.35
63405;BME280;49541;57.840;12.306;2022-08-14T08:19:06;100855.72;;;25.74;56.42
63405;BME280;49541;57.840;12.306;2022-08-14T08:24:07;100857.59;;;26.10;55.09
63405;BME280;49541;57.840;12.306;2022-08-14T08:29:08;100853.94;;;26.35;54.89
63405;BME280;49541;57.840;12.306;2022-08-14T08:34:08;100862.25;;;26.70;52.72
63405;BME280;49541;57.840;12.306;2022-08-14T08:39:09;100869.22;;;27.20;47.64
63405;BME280;49541;57.840;12.306;2022-08-14T08:44:09;100860.13;;;27.26;49.23
63405;BME280;49541;57.840;12.306;2022-08-14T08:49:09;100854.13;;;27.76;48.57
63405;BME280;49541;57.840;12.306;2022-08-14T08:54:13;100852.16;;;28.12;45.08
63405;BME280;49541;57.840;12.306;2022-08-14T08:59:15;100852.75;;;28.14;46.57
63405;BME280;49541;57.840;12.306;2022-08-14T09:04:16;100853.63;;;28.61;45.14
63405;BME280;49541;57.840;12.306;2022-08-14T09:09:23;100861.94;;;28.66;44.46
63405;BME280;49541;57.840;12.306;2022-08-14T09:14:24;100854.91;;;28.87;44.70
63405;BME280;49541;57.840;12.306;2022-08-14T09:19:26;100855.69;;;29.55;41.08
63405;BME280;49541;57.840;12.306;2022-08-14T09:24:26;100842.84;;;29.99;41.11
63405;BME280;49541;57.840;12.306;2022-08-14T09:29:26;100844.25;;;30.02;41.54
63405;BME280;49541;57.840;12.306;2022-08-14T09:34:47;100833.97;;;30.14;40.14
63405;BME280;49541;57.840;12.306;2022-08-14T09:40:11;100839.31;;;30.48;38.29
63405;BME280;49541;57.840;12.306;2022-08-14T09:55:23;100820.09;;;31.66;36.00
63405;BME280;49541;57.840;12.306;2022-08-14T10:00:33;100821.09;;;32.07;33.87
63405;BME280;49541;57.840;12.306;2022-08-14T10:05:36;100820.00;;;32.03;35.45
63405;BME280;49541;57.840;12.306;2022-08-14T10:10:38;100819.84;;;32.56;33.34
63405;BME280;49541;57.840;12.306;2022-08-14T10:15:43;100812.13;;;32.94;33.89
63405;BME280;49541;57.840;12.306;2022-08-14T10:25:51;100807.72;;;33.94;32.63
63405;BME280;49541;57.840;12.306;2022-08-14T10:30:52;100798.13;;;34.31;32.15
63405;BME280;49541;57.840;12.306;2022-08-14T10:35:53;100802.25;;;34.73;32.03
63405;BME280;49541;57.840;12.306;2022-08-14T10:40:54;100791.75;;;35.28;30.48
63405;BME280;49541;57.840;12.306;2022-08-14T10:45:57;100786.13;;;35.81;30.11
63405;BME280;49541;57.840;12.306;2022-08-14T10:50:59;100770.78;;;35.70;30.97
63405;BME280;49541;57.840;12.306;2022-08-14T10:56:00;100782.16;;;36.44;28.78
63405;BME280;49541;57.840;12.306;2022-08-14T11:01:02;100776.66;;;36.91;29.11
63405;BME280;49541;57.840;12.306;2022-08-14T11:06:10;100778.16;;;37.16;28.65
63405;BME280;49541;57.840;12.306;2022-08-14T11:11:13;100773.63;;;37.62;27.35
63405;BME280;49541;57.840;12.306;2022-08-14T11:16:14;100764.16;;;37.21;28.74
63405;BME280;49541;57.840;12.306;2022-08-14T11:21:16;100761.47;;;37.02;29.40
63405;BME280;49541;57.840;12.306;2022-08-14T11:26:17;100760.59;;;37.21;28.25
63405;BME280;49541;57.840;12.306;2022-08-14T11:31:21;100759.88;;;37.15;28.67
63405;BME280;49541;57.840;12.306;2022-08-14T11:36:23;100760.91;;;36.40;29.98
63405;BME280;49541;57.840;12.306;2022-08-14T11:41:27;100752.97;;;37.13;28.88
63405;BME280;49541;57.840;12.306;2022-08-14T11:46:27;100740.63;;;38.10;26.88
63405;BME280;49541;57.840;12.306;2022-08-14T11:51:27;100752.22;;;37.62;28.17
63405;BME280;49541;57.840;12.306;2022-08-14T11:56:35;100743.59;;;37.36;28.96
63405;BME280;49541;57.840;12.306;2022-08-14T12:01:35;100734.47;;;38.45;26.83
63405;BME280;49541;57.840;12.306;2022-08-14T12:11:47;100728.03;;;38.13;26.75
63405;BME280;49541;57.840;12.306;2022-08-14T12:17:04;100723.03;;;39.00;25.57
63405;BME280;49541;57.840;12.306;2022-08-14T12:22:05;100727.63;;;39.80;24.56
63405;BME280;49541;57.840;12.306;2022-08-14T12:27:05;100717.50;;;41.22;22.32
63405;BME280;49541;57.840;12.306;2022-08-14T12:32:06;100712.97;;;41.38;22.06
63405;BME280;49541;57.840;12.306;2022-08-14T12:37:07;100706.88;;;41.66;21.77
63405;BME280;49541;57.840;12.306;2022-08-14T12:42:07;100710.19;;;42.01;21.90
63405;BME280;49541;57.840;12.306;2022-08-14T12:47:11;100700.97;;;42.22;21.79
63405;BME280;49541;57.840;12.306;2022-08-14T12:52:13;100697.72;;;41.36;21.93
63405;BME280;49541;57.840;12.306;2022-08-14T12:57:14;100690.78;;;41.42;22.07
63405;BME280;49541;57.840;12.306;2022-08-14T13:02:21;100682.22;;;40.87;22.21
63405;BME280;49541;57.840;12.306;2022-08-14T13:07:22;100669.53;;;42.37;20.74
63405;BME280;49541;57.840;12.306;2022-08-14T13:12:25;100653.88;;;42.11;20.48
63405;BME280;49541;57.840;12.306;2022-08-14T13:17:28;100641.31;;;42.18;20.92
63405;BME280;49541;57.840;12.306;2022-08-14T13:22:30;100630.13;;;40.62;19.82
63405;BME280;49541;57.840;12.306;2022-08-14T13:27:33;100622.13;;;39.35;21.62
63405;BME280;49541;57.840;12.306;2022-08-14T13:32:36;100613.09;;;39.11;22.11
63405;BME280;49541;57.840;12.306;2022-08-14T13:37:39;100612.13;;;39.95;21.19
63405;BME280;49541;57.840;12.306;2022-08-14T13:42:40;100599.25;;;38.89;21.27
63405;BME280;49541;57.840;12.306;2022-08-14T13:47:41;100586.06;;;38.15;21.73
63405;BME280;49541;57.840;12.306;2022-08-14T13:52:44;100573.25;;;38.36;22.90
63405;BME280;49541;57.840;12.306;2022-08-14T13:57:46;100575.44;;;39.75;22.06
63405;BME280;49541;57.840;12.306;2022-08-14T14:02:47;100582.34;;;40.72;21.21
63405;BME280;49541;57.840;12.306;2022-08-14T14:07:48;100583.13;;;41.86;19.77
63405;BME280;49541;57.840;12.306;2022-08-14T14:12:49;100573.22;;;42.96;19.77
63405;BME280;49541;57.840;12.306;2022-08-14T14:17:49;100570.38;;;43.08;18.55
63405;BME280;49541;57.840;12.306;2022-08-14T14:22:50;100565.75;;;42.75;19.37
63405;BME280;49541;57.840;12.306;2022-08-14T14:27:50;100550.38;;;42.69;19.08
63405;BME280;49541;57.840;12.306;2022-08-14T14:32:53;100537.78;;;42.26;19.15
63405;BME280;49541;57.840;12.306;2022-08-14T14:37:55;100530.50;;;41.88;20.32
63405;BME280;49541;57.840;12.306;2022-08-14T14:42:55;100526.88;;;40.49;22.49
63405;BME280;49541;57.840;12.306;2022-08-14T14:47:56;100531.31;;;40.42;22.13
63405;BME280;49541;57.840;12.306;2022-08-14T14:52:56;100529.44;;;38.99;24.66
63405;BME280;49541;57.840;12.306;2022-08-14T14:57:58;100528.06;;;40.01;22.99
63405;BME280;49541;57.840;12.306;2022-08-14T15:02:58;100527.53;;;40.08;21.50
63405;BME280;49541;57.840;12.306;2022-08-14T15:07:59;100523.81;;;40.93;19.08
63405;BME280;49541;57.840;12.306;2022-08-14T15:12:59;100517.41;;;41.13;18.78
63405;BME280;49541;57.840;12.306;2022-08-14T15:17:59;100504.41;;;40.46;21.44
63405;BME280;49541;57.840;12.306;2022-08-14T15:23:00;100501.34;;;41.31;21.75
63405;BME280;49541;57.840;12.306;2022-08-14T15:28:01;100500.06;;;41.62;21.35
63405;BME280;49541;57.840;12.306;2022-08-14T15:33:01;100500.34;;;41.48;20.96
63405;BME280;49541;57.840;12.306;2022-08-14T15:38:02;100503.59;;;41.84;20.87
63405;BME280;49541;57.840;12.306;2022-08-14T15:43:08;100495.31;;;41.63;20.21
63405;BME280;49541;57.840;12.306;2022-08-14T15:48:12;100482.88;;;41.39;19.66
63405;BME280;49541;57.840;12.306;2022-08-14T15:53:12;100477.88;;;41.11;20.12
63405;BME280;49541;57.840;12.306;2022-08-14T15:58:12;100469.50;;;41.32;19.88
63405;BME280;49541;57.840;12.306;2022-08-14T16:03:13;100471.19;;;40.83;20.51
63405;BME280;49541;57.840;12.306;2022-08-14T16:08:13;100467.66;;;39.84;22.75
63405;BME280;49541;57.840;12.306;2022-08-14T16:13:14;100467.75;;;39.06;24.47
63405;BME280;49541;57.840;12.306;2022-08-14T16:18:14;100458.31;;;38.32;25.00
63405;BME280;49541;57.840;12.306;2022-08-14T16:23:17;100452.72;;;38.23;24.94
63405;BME280;49541;57.840;12.306;2022-08-14T16:28:19;100445.69;;;38.17;24.71
63405;BME280;49541;57.840;12.306;2022-08-14T16:33:21;100445.53;;;37.82;25.19
63405;BME280;49541;57.840;12.306;2022-08-14T16:38:21;100440.09;;;36.09;27.47
63405;BME280;49541;57.840;12.306;2022-08-14T16:43:31;100433.91;;;35.05;28.34
63405;BME280;49541;57.840;12.306;2022-08-14T16:48:31;100424.41;;;33.53;31.33
63405;BME280;49541;57.840;12.306;2022-08-14T16:53:32;100419.22;;;33.17;32.63
63405;BME280;49541;57.840;12.306;2022-08-14T16:58:35;100412.75;;;32.92;34.07
63405;BME280;49541;57.840;12.306;2022-08-14T17:03:50;100413.50;;;33.08;33.39
63405;BME280;49541;57.840;12.306;2022-08-14T17:08:50;100412.44;;;32.99;33.82
63405;BME280;49541;57.840;12.306;2022-08-14T17:13:51;100412.97;;;32.61;34.25
63405;BME280;49541;57.840;12.306;2022-08-14T17:18:52;100408.19;;;32.17;35.32
63405;BME280;49541;57.840;12.306;2022-08-14T17:29:03;100412.75;;;31.47;37.40
63405;BME280;49541;57.840;12.306;2022-08-14T17:34:04;100398.44;;;31.34;37.19
63405;BME280;49541;57.840;12.306;2022-08-14T17:39:06;100403.38;;;31.12;37.84
63405;BME280;49541;57.840;12.306;2022-08-14T17:44:11;100411.53;;;30.66;38.63
63405;BME280;49541;57.840;12.306;2022-08-14T17:49:13;100412.25;;;29.77;40.69
63405;BME280;49541;57.840;12.306;2022-08-14T17:54:14;100402.09;;;29.40;41.60
63405;BME280;49541;57.840;12.306;2022-08-14T17:59:14;100398.63;;;29.18;42.32
63405;BME280;49541;57.840;12.306;2022-08-14T18:04:15;100390.03;;;29.09;42.74
63405;BME280;49541;57.840;12.306;2022-08-14T18:09:17;100397.41;;;28.76;43.55
63405;BME280;49541;57.840;12.306;2022-08-14T18:14:17;100397.78;;;28.90;43.57
63405;BME280;49541;57.840;12.306;2022-08-14T18:19:22;100402.13;;;28.86;43.49
63405;BME280;49541;57.840;12.306;2022-08-14T18:24:25;100416.97;;;28.90;43.48
63405;BME280;49541;57.840;12.306;2022-08-14T18:29:26;100405.25;;;28.68;43.89
63405;BME280;49541;57.840;12.306;2022-08-14T18:34:34;100403.84;;;28.43;45.05
63405;BME280;49541;57.840;12.306;2022-08-14T18:39:35;100405.25;;;28.68;45.95
63405;BME280;49541;57.840;12.306;2022-08-14T18:54:54;100417.75;;;29.13;44.28
63405;BME280;49541;57.840;12.306;2022-08-14T18:59:54;100416.47;;;28.93;44.86
63405;BME280;49541;57.840;12.306;2022-08-14T19:04:54;100408.13;;;28.83;44.22
63405;BME280;49541;57.840;12.306;2022-08-14T19:09:56;100425.38;;;28.84;44.13
63405;BME280;49541;57.840;12.306;2022-08-14T19:15:05;100417.22;;;28.62;44.69
63405;BME280;49541;57.840;12.306;2022-08-14T19:20:05;100414.88;;;28.48;44.34
63405;BME280;49541;57.840;12.306;2022-08-14T19:25:07;100419.34;;;28.15;45.14
63405;BME280;49541;57.840;12.306;2022-08-14T19:40:28;100415.16;;;27.86;47.59
63405;BME280;49541;57.840;12.306;2022-08-14T19:45:30;100407.53;;;27.54;46.56
63405;BME280;49541;57.840;12.306;2022-08-14T19:50:30;100396.97;;;27.80;46.07
63405;BME280;49541;57.840;12.306;2022-08-14T19:55:31;100398.06;;;27.78;47.32
63405;BME280;49541;57.840;12.306;2022-08-14T20:00:31;100388.50;;;27.42;47.47
63405;BME280;49541;57.840;12.306;2022-08-14T20:05:31;100389.00;;;27.56;47.89
63405;BME280;49541;57.840;12.306;2022-08-14T20:10:36;100391.63;;;27.34;48.34
63405;BME280;49541;57.840;12.306;2022-08-14T20:15:39;100384.59;;;27.21;48.55
63405;BME280;49541;57.840;12.306;2022-08-14T20:20:40;100384.41;;;27.11;48.89
63405;BME280;49541;57.840;12.306;2022-08-14T20:25:41;100383.47;;;26.88;48.79
63405;BME280;49541;57.840;12.306;2022-08-14T20:30:42;100376.00;;;26.67;49.72
63405;BME280;49541;57.840;12.306;2022-08-14T20:35:43;100367.63;;;26.45;48.97
63405;BME280;49541;57.840;12.306;2022-08-14T20:40:48;100378.19;;;26.41;48.94
63405;BME280;49541;57.840;12.306;2022-08-14T20:45:49;100376.97;;;26.20;49.12
63405;BME280;49541;57.840;12.306;2022-08-14T20:50:50;100373.38;;;26.31;50.44
63405;BME280;49541;57.840;12.306;2022-08-14T20:55:51;100372.63;;;26.07;49.79
63405;BME280;49541;57.840;12.306;2022-08-14T21:00:58;100370.72;;;25.96;50.49
63405;BME280;49541;57.840;12.306;2022-08-14T21:06:01;100360.56;;;25.80;50.61
63405;BME280;49541;57.840;12.306;2022-08-14T21:11:03;100360.31;;;25.69;50.11
63405;BME280;49541;57.840;12.306;2022-08-14T21:16:04;100361.88;;;25.53;50.27
63405;BME280;49541;57.840;12.306;2022-08-14T21:21:08;100359.03;;;25.60;51.64
63405;BME280;49541;57.840;12.306;2022-08-14T21:26:10;100352.25;;;25.27;52.73
63405;BME280;49541;57.840;12.306;2022-08-14T21:31:10;100353.31;;;25.14;53.51
63405;BME280;49541;57.840;12.306;2022-08-14T21:36:11;100349.09;;;24.88;54.52
63405;BME280;49541;57.840;12.306;2022-08-14T21:41:14;100344.19;;;24.67;54.84
63405;BME280;49541;57.840;12.306;2022-08-14T21:46:23;100335.03;;;24.49;55.68
63405;BME280;49541;57.840;12.306;2022-08-14T21:51:23;100338.38;;;24.33;55.13
63405;BME280;49541;57.840;12.306;2022-08-14T21:56:24;100336.75;;;24.14;55.85
63405;BME280;49541;57.840;12.306;2022-08-14T22:01:25;100327.84;;;23.88;55.52
63405;BME280;49541;57.840;12.306;2022-08-14T22:06:26;100351.25;;;23.89;55.68
63405;BME280;49541;57.840;12.306;2022-08-14T22:11:27;100333.41;;;23.93;58.67
63405;BME280;49541;57.840;12.306;2022-08-14T22:16:27;100340.06;;;23.35;61.52
63405;BME280;49541;57.840;12.306;2022-08-14T22:21:28;100336.34;;;23.29;61.79
63405;BME280;49541;57.840;12.306;2022-08-14T22:26:29;100336.25;;;23.43;61.03
63405;BME280;49541;57.840;12.306;2022-08-14T22:31:30;100325.28;;;22.99;61.27
63405;BME280;49541;57.840;12.306;2022-08-14T22:36:30;100310.91;;;22.74;62.64
63405;BME280;49541;57.840;12.306;2022-08-14T22:41:46;100320.09;;;23.04;62.42
63405;BME280;49541;57.840;12.306;2022-08-14T22:46:48;100316.59;;;22.65;63.46
63405;BME280;49541;57.840;12.306;2022-08-14T22:51:49;100323.94;;;22.06;63.17
63405;BME280;49541;57.840;12.306;2022-08-14T22:56:50;100326.25;;;22.09;62.83
63405;BME280;49541;57.840;12.306;2022-08-14T23:01:53;100316.63;;;22.20;61.97
63405;BME280;49541;57.840;12.306;2022-08-14T23:06:54;100318.25;;;22.28;61.23
63405;BME280;49541;57.840;12.306;2022-08-14T23:11:55;100320.22;;;22.53;59.26
63405;BME280;49541;57.840;12.306;2022-08-14T23:16:55;100314.88;;;22.39;56.74
63405;BME280;49541;57.840;12.306;2022-08-14T23:21:56;100324.16;;;22.12;56.56
63405;BME280;49541;57.840;12.306;2022-08-14T23:26:56;100326.78;;;22.32;55.39
63405;BME280;49541;57.840;12.306;2022-08-14T23:31:56;100316.31;;;21.90;57.03
63405;BME280;49541;57.840;12.306;2022-08-14T23:36:57;100324.00;;;21.93;57.11
63405;BME280;49541;57.840;12.306;2022-08-14T23:42:02;100328.53;;;22.06;56.84
63405;BME280;49541;57.840;12.306;2022-08-14T23:47:04;100336.66;;;22.13;55.48
63405;BME280;49541;57.840;12.306;2022-08-14T23:52:05;100334.47;;;21.76;57.23
63405;BME280;49541;57.840;12.306;2022-08-14T23:57:06;100332.97;;;21.94;56.34
